createdAt,value
2023-01-02T00:01:19.291Z,42.67
2023-01-02T00:03:43.956Z,45.90
2023-01-02T00:06:10.143Z,45.55
2023-01-02T00:08:35.880Z,44.67
2023-01-02T00:11:00.404Z,45.50
2023-01-02T00:13:24.775Z,43.92
2023-01-02T00:15:49.874Z,44.45
2023-01-02T00:18:14.531Z,45.42
2023-01-02T00:20:39.193Z,45.15
2023-01-02T00:23:05.198Z,45.35
2023-01-02T00:25:29.689Z,45.47
2023-01-02T00:27:54.075Z,44.92
2023-01-02T00:30:18.635Z,45.25
2023-01-02T00:32:42.955Z,45.65
2023-01-02T00:35:08.411Z,46.75
2023-01-02T00:37:32.792Z,44.33
2023-01-02T00:39:58.610Z,46.90
2023-01-02T00:42:22.953Z,45.08
2023-01-02T00:44:47.345Z,47.00
2023-01-02T00:47:11.740Z,45.42
2023-01-02T00:49:36.146Z,45.60
2023-01-02T00:52:00.589Z,46.00
2023-01-02T00:54:24.977Z,46.67
2023-01-02T00:56:50.698Z,45.63
2023-01-02T00:59:15.012Z,45.65
2023-01-02T01:01:39.627Z,47.45
2023-01-02T01:04:04.429Z,47.80
2023-01-02T01:06:28.866Z,45.10
2023-01-02T01:08:53.251Z,45.42
2023-01-02T01:11:18.454Z,46.40
2023-01-02T01:13:44.233Z,45.25
2023-01-02T01:16:10.999Z,46.33
2023-01-02T01:18:35.800Z,47.58
2023-01-02T01:21:00.315Z,47.42
2023-01-02T01:23:24.719Z,45.70
2023-01-02T01:25:49.118Z,45.95
2023-01-02T01:28:13.431Z,46.08
2023-01-02T01:30:39.279Z,44.55
2023-01-02T01:33:03.629Z,46.08
2023-01-02T01:35:28.028Z,45.83
2023-01-02T01:37:52.317Z,43.50
2023-01-02T01:40:16.849Z,44.40
2023-01-02T01:42:41.197Z,45.00
2023-01-02T01:45:13.607Z,44.03
2023-01-02T01:47:42.674Z,45.30
2023-01-02T01:50:11.336Z,46.20
2023-01-02T01:52:44.337Z,45.85
2023-01-02T01:55:13.277Z,45.97
2023-01-02T01:57:42.428Z,45.57
2023-01-02T02:00:08.302Z,46.85
2023-01-02T02:02:35.664Z,47.85
2023-01-02T02:05:03.966Z,46.85
2023-01-02T02:07:28.856Z,47.50
2023-01-02T02:09:56.379Z,46.53
2023-01-02T02:12:25.972Z,47.53
2023-01-02T02:14:52.359Z,45.38
2023-01-02T02:17:48.795Z,45.72
2023-01-02T02:20:32.130Z,45.75
2023-01-02T02:23:45.513Z,47.00
2023-01-02T02:26:33.157Z,44.83
2023-01-02T02:29:38.864Z,45.13
2023-01-02T02:32:12.328Z,45.55
2023-01-02T02:34:45.006Z,44.45
2023-01-02T02:37:16.673Z,46.15
2023-01-02T02:39:54.364Z,43.88
2023-01-02T02:42:28.068Z,44.55
2023-01-02T02:45:03.048Z,44.25
2023-01-02T02:47:34.908Z,43.97
2023-01-02T02:50:08.830Z,45.88
2023-01-02T02:52:37.274Z,43.70
2023-01-02T02:55:06.801Z,43.55
2023-01-02T02:57:33.103Z,43.70
2023-01-02T02:59:57.797Z,45.17
2023-01-02T03:02:22.567Z,44.47
2023-01-02T03:04:54.377Z,44.60
2023-01-02T03:07:27.988Z,44.25
2023-01-02T03:10:09.259Z,46.10
2023-01-02T03:12:41.811Z,46.50
2023-01-02T03:15:17.267Z,46.20
2023-01-02T03:17:54.124Z,45.70
2023-01-02T03:20:21.815Z,45.70
2023-01-02T03:22:54.317Z,46.72
2023-01-02T03:25:20.568Z,47.10
2023-01-02T03:27:47.572Z,43.90
2023-01-02T03:30:17.296Z,44.75
2023-01-02T03:32:46.989Z,45.08
2023-01-02T03:35:16.528Z,44.70
2023-01-02T03:37:46.025Z,46.10
2023-01-02T03:40:15.953Z,46.50
2023-01-02T03:45:10.499Z,46.20
2023-01-02T03:47:40.275Z,47.03
2023-01-02T03:50:10.385Z,46.90
2023-01-02T03:55:01.781Z,45.55
2023-01-02T03:57:34.491Z,45.53
2023-01-02T04:00:04.252Z,46.72
2023-01-02T04:02:44.037Z,45.10
2023-01-02T04:05:15.383Z,46.95
2023-01-02T04:07:48.228Z,45.90
2023-01-02T04:10:16.177Z,48.03
2023-01-02T04:12:42.425Z,46.25
2023-01-02T04:15:09.749Z,44.90
2023-01-02T04:17:40.064Z,47.08
2023-01-02T04:20:09.828Z,45.20
2023-01-02T04:22:39.479Z,44.65
2023-01-02T04:25:10.240Z,47.63
2023-01-02T04:27:40.503Z,46.97
2023-01-02T04:30:05.359Z,46.95
2023-01-02T04:32:33.910Z,46.00
2023-01-02T04:34:59.102Z,46.80
2023-01-02T04:37:32.095Z,46.38
2023-01-02T04:39:59.866Z,44.67
2023-01-02T04:42:24.289Z,43.20
2023-01-02T04:44:51.488Z,48.13
2023-01-02T04:47:21.678Z,44.95
2023-01-02T04:49:46.579Z,42.03
2023-01-02T04:52:10.989Z,44.42
2023-01-02T04:54:35.474Z,42.63
2023-01-02T04:56:59.780Z,42.83
2023-01-02T04:59:24.259Z,40.05
2023-01-02T05:01:50.125Z,41.75
2023-01-02T05:04:14.655Z,42.20
2023-01-02T05:06:39.260Z,41.38
2023-01-02T05:09:03.628Z,40.90
2023-01-02T05:11:27.929Z,41.53
2023-01-02T05:13:52.453Z,40.95
2023-01-02T05:16:16.983Z,40.55
2023-01-02T05:18:42.821Z,39.05
2023-01-02T05:21:29.800Z,39.85
2023-01-02T05:23:53.459Z,38.95
2023-01-02T05:26:19.226Z,40.35
2023-01-02T05:28:44.016Z,39.83
2023-01-02T05:31:08.553Z,40.50
2023-01-02T05:33:33.013Z,39.55
2023-01-02T05:35:59.317Z,40.85
2023-01-02T05:38:23.837Z,40.53
2023-01-02T05:40:48.140Z,40.20
2023-01-02T05:43:12.615Z,41.13
2023-01-02T05:45:36.988Z,39.63
2023-01-02T05:48:01.963Z,39.55
2023-01-02T05:50:26.324Z,39.42
2023-01-02T05:52:52.155Z,40.67
2023-01-02T05:55:16.619Z,40.40
2023-01-02T05:57:41.244Z,39.13
2023-01-02T06:00:06.205Z,38.75
2023-01-02T06:02:37.255Z,37.53
2023-01-02T06:05:01.735Z,37.55
2023-01-02T06:07:26.036Z,34.50
2023-01-02T06:09:51.831Z,34.95
2023-01-02T06:12:16.168Z,35.05
2023-01-02T06:14:40.838Z,33.53
2023-01-02T06:17:05.169Z,33.35
2023-01-02T06:19:31.985Z,32.58
2023-01-02T06:21:56.430Z,34.90
2023-01-02T06:24:21.182Z,35.13
2023-01-02T06:26:47.089Z,35.10
2023-01-02T06:29:11.608Z,34.40
2023-01-02T06:31:39.608Z,34.97
2023-01-02T06:34:05.267Z,34.78
2023-01-02T06:36:32.470Z,34.88
2023-01-02T06:38:56.895Z,34.22
2023-01-02T06:41:21.479Z,34.40
2023-01-02T06:43:48.761Z,33.42
2023-01-02T06:46:14.238Z,32.40
2023-01-02T06:48:38.790Z,32.80
2023-01-02T06:51:06.347Z,33.50
2023-01-02T06:53:30.913Z,33.38
2023-01-02T06:55:56.891Z,34.45
2023-01-02T06:58:21.625Z,34.88
2023-01-02T07:00:47.666Z,35.03
2023-01-02T07:03:12.025Z,33.35
2023-01-02T07:05:36.380Z,35.70
2023-01-02T07:08:00.783Z,33.70
2023-01-02T07:10:25.190Z,33.60
2023-01-02T07:12:49.571Z,34.88
2023-01-02T07:15:13.959Z,33.45
2023-01-02T07:17:39.737Z,33.92
2023-01-02T07:20:04.116Z,33.40
2023-01-02T07:22:28.533Z,34.45
2023-01-02T07:24:53.316Z,31.05
2023-01-02T07:27:17.665Z,32.55
2023-01-02T07:29:42.211Z,31.58
2023-01-02T07:32:06.833Z,31.83
2023-01-02T07:34:32.762Z,33.92
2023-01-02T07:36:57.066Z,31.10
2023-01-02T07:39:21.458Z,32.92
2023-01-02T07:41:45.864Z,33.53
2023-01-02T07:44:12.112Z,32.80
2023-01-02T07:46:36.574Z,31.75
2023-01-02T07:49:00.979Z,32.78
2023-01-02T07:51:27.739Z,31.88
2023-01-02T07:53:54.938Z,30.58
2023-01-02T07:56:19.368Z,31.15
2023-01-02T07:58:43.649Z,32.35
2023-01-02T08:01:09.155Z,30.83
2023-01-02T08:03:34.090Z,32.15
2023-01-02T08:06:04.621Z,30.77
2023-01-02T08:08:30.402Z,30.98
2023-01-02T08:10:54.697Z,29.42
2023-01-02T08:13:19.097Z,29.27
2023-01-02T08:15:43.545Z,29.20
2023-01-02T08:18:07.968Z,29.63
2023-01-02T08:20:32.240Z,30.08
2023-01-02T08:22:57.937Z,29.55
2023-01-02T08:25:23.810Z,28.23
2023-01-02T08:27:48.268Z,26.50
2023-01-02T08:30:13.757Z,26.35
2023-01-02T08:32:38.493Z,25.95
2023-01-02T08:35:02.940Z,24.70
2023-01-02T08:37:27.455Z,24.95
2023-01-02T08:39:52.030Z,24.33
2023-01-02T08:42:17.775Z,25.45
2023-01-02T08:44:43.350Z,25.40
2023-01-02T08:47:07.689Z,25.08
2023-01-02T08:49:32.188Z,25.55
2023-01-02T08:51:56.579Z,26.38
2023-01-02T08:54:21.039Z,24.13
2023-01-02T08:56:45.356Z,26.08
2023-01-02T08:59:13.042Z,25.40
2023-01-02T09:01:38.085Z,26.17
2023-01-02T09:04:11.499Z,27.80
2023-01-02T09:06:38.193Z,27.35
2023-01-02T09:09:09.222Z,28.10
2023-01-02T09:11:38.103Z,27.48
2023-01-02T09:14:03.310Z,27.38
2023-01-02T09:16:29.476Z,25.92
2023-01-02T09:18:54.443Z,27.75
2023-01-02T09:21:19.172Z,26.63
2023-01-02T09:23:43.617Z,26.00
2023-01-02T09:26:09.599Z,25.88
2023-01-02T09:28:35.654Z,27.52
2023-01-02T09:31:00.123Z,26.33
2023-01-02T09:33:25.927Z,27.33
2023-01-02T09:35:50.945Z,26.40
2023-01-02T09:38:15.460Z,25.98
2023-01-02T09:40:43.951Z,26.20
2023-01-02T09:43:08.303Z,24.20
2023-01-02T09:45:32.867Z,24.38
2023-01-02T09:48:00.026Z,24.20
2023-01-02T09:50:28.432Z,23.75
2023-01-02T09:52:56.799Z,23.77
2023-01-02T09:55:33.645Z,24.98
2023-01-02T09:58:00.831Z,25.55
2023-01-02T10:00:28.108Z,24.23
2023-01-02T10:03:08.549Z,23.10
2023-01-02T10:06:03.792Z,24.02
2023-01-02T10:08:36.899Z,23.83
2023-01-02T10:11:12.418Z,25.45
2023-01-02T10:18:57.687Z,22.35
2023-01-02T10:21:28.327Z,22.83
2023-01-02T10:23:57.921Z,25.40
2023-01-02T10:26:26.109Z,24.77
2023-01-02T10:28:56.058Z,25.88
2023-01-02T10:31:26.478Z,24.77
2023-01-02T10:33:55.005Z,24.55
2023-01-02T10:36:27.980Z,25.40
2023-01-02T10:38:53.351Z,23.95
2023-01-02T10:41:18.810Z,23.40
2023-01-02T10:43:43.230Z,23.73
2023-01-02T10:46:08.044Z,23.50
2023-01-02T10:48:35.592Z,23.08
2023-01-02T10:51:04.748Z,22.92
2023-01-02T10:53:33.573Z,23.50
2023-01-02T10:55:58.025Z,22.90
2023-01-02T10:58:25.482Z,22.55
2023-01-02T11:00:52.114Z,22.45
2023-01-02T11:03:19.056Z,22.83
2023-01-02T11:05:47.995Z,21.27
2023-01-02T11:08:14.825Z,23.83
2023-01-02T11:10:40.764Z,21.20
2023-01-02T11:13:06.457Z,22.02
2023-01-02T11:15:34.947Z,23.17
2023-01-02T11:18:00.315Z,22.25
2023-01-02T11:20:30.975Z,20.95
2023-01-02T11:22:58.751Z,21.52
2023-01-02T11:25:27.082Z,20.38
2023-01-02T11:27:57.592Z,20.48
2023-01-02T11:30:38.390Z,18.95
2023-01-02T11:33:06.674Z,19.90
2023-01-02T11:35:38.402Z,19.30
2023-01-02T11:38:03.680Z,18.98
2023-01-02T11:40:30.146Z,18.40
2023-01-02T11:43:18.272Z,18.67
2023-01-02T11:45:43.271Z,17.52
2023-01-02T11:48:13.620Z,17.00
2023-01-02T11:50:39.997Z,16.83
2023-01-02T11:53:08.984Z,17.33
2023-01-02T11:55:45.509Z,18.13
2023-01-02T11:58:20.957Z,16.10
2023-01-02T12:00:48.898Z,16.90
2023-01-02T12:03:19.015Z,16.85
2023-01-02T12:05:57.541Z,16.58
2023-01-02T12:08:41.102Z,17.08
2023-01-02T12:11:19.039Z,18.08
2023-01-02T12:13:59.614Z,16.40
2023-01-02T12:16:34.459Z,17.23
2023-01-02T12:19:27.148Z,17.73
2023-01-02T12:22:01.536Z,18.25
2023-01-02T12:24:55.454Z,16.65
2023-01-02T12:27:28.648Z,17.25
2023-01-02T12:30:09.188Z,18.30
2023-01-02T12:33:06.105Z,18.23
2023-01-02T12:35:45.588Z,18.27
2023-01-02T12:38:12.385Z,17.92
2023-01-02T12:40:53.771Z,16.95
2023-01-02T12:43:48.192Z,19.00
2023-01-02T12:46:21.673Z,17.92
2023-01-02T12:49:02.919Z,18.17
2023-01-02T12:51:32.391Z,20.75
2023-01-02T12:54:21.276Z,20.52
2023-01-02T12:56:53.390Z,20.70
2023-01-02T12:59:49.904Z,20.90
2023-01-02T13:02:33.045Z,20.38
2023-01-02T13:04:59.256Z,19.58
2023-01-02T13:07:31.937Z,20.30
2023-01-02T13:09:58.712Z,18.40
2023-01-02T13:12:27.041Z,19.08
2023-01-02T13:14:55.879Z,18.50
2023-01-02T13:17:46.187Z,19.40
2023-01-02T13:20:21.743Z,18.27
2023-01-02T13:22:55.732Z,17.48
2023-01-02T13:25:21.941Z,18.30
2023-01-02T13:27:47.704Z,20.30
2023-01-02T13:30:48.183Z,19.95
2023-01-02T13:33:38.599Z,19.88
2023-01-02T13:36:17.506Z,18.92
2023-01-02T13:38:45.277Z,19.53
2023-01-02T13:41:15.030Z,18.83
2023-01-02T13:43:41.412Z,18.70
2023-01-02T13:46:06.173Z,19.27
2023-01-02T13:48:35.883Z,19.42
2023-01-02T13:51:04.755Z,18.48
2023-01-02T13:53:40.119Z,18.15
2023-01-02T13:56:09.012Z,18.58
2023-01-02T13:58:45.907Z,18.70
2023-01-02T14:01:44.046Z,18.90
2023-01-02T14:04:29.276Z,19.98
2023-01-02T14:06:55.874Z,20.17
2023-01-02T14:09:21.954Z,19.10
2023-01-02T14:11:57.255Z,20.48
2023-01-02T14:14:25.488Z,19.95
2023-01-02T14:17:04.063Z,19.80
2023-01-02T14:19:29.177Z,20.80
2023-01-02T14:22:05.428Z,22.00
2023-01-02T14:24:34.240Z,21.52
2023-01-02T14:27:01.264Z,21.45
2023-01-02T14:29:28.277Z,21.30
2023-01-02T14:32:02.815Z,22.15
2023-01-02T14:34:28.199Z,23.20
2023-01-02T14:36:54.266Z,22.95
2023-01-02T14:39:26.866Z,22.52
2023-01-02T14:42:44.806Z,23.42
2023-01-02T14:45:16.250Z,22.55
2023-01-02T14:47:44.987Z,24.30
2023-01-02T14:50:14.505Z,25.30
2023-01-02T14:52:42.443Z,25.27
2023-01-02T14:55:14.900Z,25.08
2023-01-02T14:57:41.527Z,24.77
2023-01-02T15:00:14.570Z,25.50
2023-01-02T15:02:44.021Z,26.98
2023-01-02T15:05:13.561Z,26.15
2023-01-02T15:07:42.846Z,26.48
2023-01-02T15:10:16.420Z,26.38
2023-01-02T15:13:03.699Z,26.63
2023-01-02T15:15:29.699Z,26.35
2023-01-02T15:17:57.496Z,26.70
2023-01-02T15:20:24.607Z,26.23
2023-01-02T15:22:50.331Z,27.05
2023-01-02T15:25:32.548Z,27.85
2023-01-02T15:27:57.373Z,27.75
2023-01-02T15:30:28.837Z,26.00
2023-01-02T15:32:54.178Z,27.00
2023-01-02T15:35:23.481Z,26.00
2023-01-02T15:40:18.708Z,28.38
2023-01-02T15:43:00.521Z,29.42
2023-01-02T15:45:25.145Z,28.98
2023-01-02T15:47:51.623Z,30.63
2023-01-02T15:50:21.256Z,30.92
2023-01-02T15:52:48.298Z,30.15
2023-01-02T15:55:20.076Z,30.40
2023-01-02T15:57:53.754Z,31.05
2023-01-02T16:00:36.154Z,30.77
2023-01-02T16:03:01.404Z,31.33
2023-01-02T16:05:25.977Z,31.88
2023-01-02T16:07:52.452Z,31.48
2023-01-02T16:10:22.455Z,32.25
2023-01-02T16:15:20.867Z,31.40
2023-01-02T16:17:47.602Z,33.75
2023-01-02T16:20:20.081Z,32.58
2023-01-02T16:22:47.356Z,33.70
2023-01-02T16:25:19.092Z,33.05
2023-01-02T16:27:51.467Z,33.15
2023-01-02T16:30:18.667Z,34.15
2023-01-02T16:32:49.752Z,34.08
2023-01-02T16:35:21.642Z,35.80
2023-01-02T16:37:54.207Z,34.25
2023-01-02T16:41:00.137Z,35.67
2023-01-02T16:43:27.919Z,38.08
2023-01-02T16:45:53.354Z,37.20
2023-01-02T16:48:22.149Z,35.92
2023-01-02T16:50:47.939Z,36.45
2023-01-02T16:53:18.040Z,32.75
2023-01-02T16:55:43.881Z,34.97
2023-01-02T16:58:10.401Z,34.33
2023-01-02T17:00:41.353Z,35.80
2023-01-02T17:03:08.177Z,35.00
2023-01-02T17:05:39.309Z,35.90
2023-01-02T17:08:03.875Z,46.53
2023-01-02T17:10:29.077Z,39.35
2023-01-02T17:12:53.836Z,39.92
2023-01-02T17:15:19.988Z,39.90
2023-01-02T17:17:44.721Z,40.53
2023-01-02T17:20:11.467Z,39.67
2023-01-02T17:22:36.439Z,38.28
2023-01-02T17:25:00.946Z,40.63
2023-01-02T17:27:25.584Z,39.65
2023-01-02T17:29:49.931Z,20.75
2023-01-02T17:32:15.893Z,39.50
2023-01-02T17:34:40.605Z,38.75
2023-01-02T17:37:05.379Z,38.58
2023-01-02T17:39:29.886Z,41.20
2023-01-02T17:41:55.346Z,38.88
2023-01-02T17:44:19.995Z,39.05
2023-01-02T17:49:30.491Z,38.20
2023-01-02T17:51:54.896Z,40.40
2023-01-02T17:54:19.794Z,40.67
2023-01-02T17:56:44.491Z,38.58
2023-01-02T17:59:09.092Z,38.50
2023-01-02T18:01:34.184Z,40.00
2023-01-02T18:03:58.826Z,37.92
2023-01-02T18:06:24.687Z,39.95
2023-01-02T18:08:50.488Z,38.38
2023-01-02T18:11:17.890Z,38.78
2023-01-02T18:13:44.630Z,39.08
2023-01-02T18:16:15.360Z,40.65
2023-01-02T18:18:39.823Z,40.67
2023-01-02T18:21:10.350Z,41.45
2023-01-02T18:23:36.948Z,42.35
2023-01-02T18:26:01.945Z,41.30
2023-01-02T18:28:28.513Z,40.30
2023-01-02T18:30:57.546Z,40.35
2023-01-02T18:33:23.797Z,43.80
2023-01-02T18:35:59.612Z,43.40
2023-01-02T18:38:31.914Z,43.20
2023-01-02T18:40:58.452Z,46.22
2023-01-02T18:43:28.327Z,53.25
2023-01-02T18:48:21.244Z,68.28
2023-01-02T18:50:47.800Z,109.32
2023-01-02T18:53:18.751Z,67.38
2023-01-02T18:55:43.388Z,52.65
2023-01-02T18:58:35.728Z,48.88
2023-01-02T19:01:01.186Z,48.55
2023-01-02T19:03:28.618Z,49.00
2023-01-02T19:05:53.415Z,49.75
2023-01-02T19:08:21.147Z,54.03
2023-01-02T19:10:49.860Z,53.90
2023-01-02T19:13:19.244Z,56.55
2023-01-02T19:15:46.477Z,54.33
2023-01-02T19:18:38.760Z,54.08
2023-01-02T19:21:21.932Z,55.00
2023-01-02T19:23:58.286Z,54.30
2023-01-02T19:26:31.479Z,56.20
2023-01-02T19:29:01.463Z,55.17
2023-01-02T19:33:54.296Z,52.53
2023-01-02T19:36:24.296Z,54.67
2023-01-02T19:38:51.923Z,54.42
2023-01-02T19:41:16.544Z,53.97
2023-01-02T19:43:41.417Z,55.67
2023-01-02T19:46:08.244Z,55.08
2023-01-02T19:48:33.071Z,54.67
2023-01-02T19:50:57.967Z,55.00
2023-01-02T19:53:22.487Z,52.60
2023-01-02T19:55:47.062Z,52.70
2023-01-02T19:58:11.864Z,52.88
2023-01-02T20:00:37.417Z,53.65
2023-01-02T20:03:03.440Z,52.97
2023-01-02T20:05:28.843Z,52.35
2023-01-02T20:07:54.525Z,53.17
2023-01-02T20:10:19.346Z,52.83
2023-01-02T20:12:43.805Z,53.28
2023-01-02T20:15:11.416Z,52.03
2023-01-02T20:17:37.642Z,52.28
2023-01-02T20:20:04.348Z,53.22
2023-01-02T20:22:29.534Z,53.33
2023-01-02T20:24:54.345Z,53.30
2023-01-02T20:27:20.663Z,51.83
2023-01-02T20:29:45.253Z,51.53
2023-01-02T20:32:10.346Z,50.95
2023-01-02T20:34:35.153Z,51.05
2023-01-02T20:37:10.462Z,52.13
2023-01-02T20:39:35.217Z,52.55
2023-01-02T20:41:59.787Z,54.63
2023-01-02T20:44:24.730Z,53.58
2023-01-02T20:46:49.268Z,55.30
2023-01-02T20:49:13.934Z,56.05
2023-01-02T20:51:39.066Z,57.22
2023-01-02T20:54:06.652Z,57.33
2023-01-02T20:56:31.877Z,56.20
2023-01-02T20:58:57.738Z,56.95
2023-01-02T21:01:23.057Z,56.53
2023-01-02T21:03:47.937Z,56.53
2023-01-02T21:06:12.700Z,54.42
2023-01-02T21:08:38.142Z,58.13
2023-01-02T21:11:04.287Z,57.63
2023-01-02T21:13:29.805Z,55.33
2023-01-02T21:15:55.615Z,54.05
2023-01-02T21:18:22.880Z,56.00
2023-01-02T21:20:49.528Z,55.22
2023-01-02T21:23:14.459Z,55.75
2023-01-02T21:25:39.565Z,56.78
2023-01-02T21:28:06.421Z,54.55
2023-01-02T21:30:30.923Z,57.33
2023-01-02T21:32:55.440Z,56.67
2023-01-02T21:35:20.148Z,53.65
2023-01-02T21:37:44.748Z,53.47
2023-01-02T21:40:10.435Z,50.47
2023-01-02T21:42:40.837Z,53.03
2023-01-02T21:45:11.500Z,51.42
2023-01-02T21:47:35.993Z,51.45
2023-01-02T21:50:01.573Z,51.10
2023-01-02T21:52:26.219Z,50.05
2023-01-02T21:54:50.815Z,50.70
2023-01-02T21:57:15.288Z,51.90
2023-01-02T21:59:39.794Z,51.53
2023-01-02T22:02:07.633Z,50.97
2023-01-02T22:04:32.266Z,50.85
2023-01-02T22:09:41.406Z,49.92
2023-01-02T22:12:07.124Z,48.03
2023-01-02T22:14:33.236Z,47.15
2023-01-02T22:17:01.170Z,48.25
2023-01-02T22:19:27.899Z,49.03
2023-01-02T22:21:53.578Z,49.42
2023-01-02T22:24:19.219Z,48.72
2023-01-02T22:26:47.897Z,50.50
2023-01-02T22:29:13.595Z,48.80
2023-01-02T22:31:41.405Z,48.80
2023-01-02T22:34:06.461Z,49.42
2023-01-02T22:36:33.928Z,48.03
2023-01-02T22:39:26.591Z,49.65
2023-01-02T22:41:44.863Z,47.35
2023-01-02T22:44:13.776Z,47.42
2023-01-02T22:46:42.032Z,47.90
2023-01-02T22:49:06.553Z,48.70
2023-01-02T22:52:05.501Z,45.58
2023-01-02T22:54:20.381Z,47.72
2023-01-02T22:56:45.518Z,46.80
2023-01-02T22:59:10.477Z,48.30
2023-01-02T23:01:37.537Z,47.88
2023-01-02T23:04:02.202Z,47.65
2023-01-02T23:06:26.769Z,47.30
2023-01-02T23:08:52.964Z,48.03
2023-01-02T23:11:17.491Z,46.85
2023-01-02T23:13:42.976Z,44.78
2023-01-02T23:16:25.519Z,47.30
2023-01-02T23:19:07.496Z,46.35
2023-01-02T23:21:33.829Z,46.20
2023-01-02T23:23:59.710Z,45.88
2023-01-02T23:26:27.121Z,45.15
2023-01-02T23:29:08.859Z,46.72
2023-01-02T23:31:33.678Z,44.08
2023-01-02T23:33:58.065Z,45.13
2023-01-02T23:36:22.729Z,44.30
2023-01-02T23:38:47.247Z,44.72
2023-01-02T23:41:13.143Z,45.95
2023-01-02T23:43:37.643Z,44.05
2023-01-02T23:46:02.102Z,45.83
2023-01-02T23:48:26.516Z,45.45
2023-01-02T23:50:57.926Z,46.25
2023-01-02T23:53:22.681Z,43.67
2023-01-02T23:55:46.975Z,44.95
2023-01-02T23:58:12.811Z,43.90
